Time;durP1;ratioP1;P1;durP2;ratioP2;P2;SDS_P1;SDS_P2;PMS_P1;PMS_P2;Temp;Humidity;BMP_temperature;BMP_pressure;BME280_temperature;BME280_humidity;BME280_pressure;Samples;Min_cycle;Max_cycle;Signal;HPM_P1;HPM_P2
2022/06/19 00:01:18;;;;;;;12.97;2.90;;;;;;;15.69;79.13;100751.22;5050169;28;20418;-82
2022/06/19 00:03:47;;;;;;;12.13;2.80;;;;;;;15.70;78.82;100748.25;5051383;28;20052;-82
2022/06/19 00:06:14;;;;;;;11.80;2.70;;;;;;;15.72;78.69;100748.03;5048035;28;20028;-81
2022/06/19 00:08:40;;;;;;;16.20;2.80;;;;;;;15.65;78.35;100745.44;5034405;28;20040;-81
2022/06/19 00:11:07;;;;;;;11.10;2.93;;;;;;;15.67;78.47;100751.47;5031133;28;20473;-83
2022/06/19 00:13:33;;;;;;;14.40;3.53;;;;;;;15.65;78.91;100747.34;5047069;28;22274;-81
2022/06/19 00:15:59;;;;;;;8.73;2.70;;;;;;;15.57;78.95;100732.22;5047927;28;20122;-82
2022/06/19 00:18:24;;;;;;;14.73;3.23;;;;;;;15.49;79.34;100724.41;5048001;28;20033;-83
2022/06/19 00:20:50;;;;;;;12.27;3.00;;;;;;;15.46;79.25;100731.22;5046736;28;20029;-82
2022/06/19 00:23:16;;;;;;;14.30;3.07;;;;;;;15.43;78.99;100731.69;5049597;28;20253;-81
2022/06/19 00:25:41;;;;;;;11.03;2.80;;;;;;;15.43;79.04;100737.16;5052364;28;20032;-81
2022/06/19 00:28:07;;;;;;;11.10;3.30;;;;;;;15.35;78.88;100730.22;5045454;28;20081;-81
2022/06/19 00:30:32;;;;;;;13.73;2.90;;;;;;;15.29;79.44;100733.91;5048478;28;20032;-81
2022/06/19 00:32:59;;;;;;;12.00;2.87;;;;;;;15.31;78.62;100741.84;5052851;28;20086;-82
2022/06/19 00:35:28;;;;;;;12.90;2.87;;;;;;;15.24;78.93;100750.19;5046846;28;20376;-82
2022/06/19 00:37:54;;;;;;;11.00;3.10;;;;;;;15.19;79.55;100769.22;5028112;28;20035;-82
2022/06/19 00:40:21;;;;;;;12.07;2.93;;;;;;;15.18;77.97;100770.28;5050601;28;20040;-85
2022/06/19 00:42:47;;;;;;;11.30;2.90;;;;;;;15.07;77.66;100755.63;5049329;28;20499;-83
2022/06/19 00:45:33;;;;;;;15.20;3.40;;;;;;;15.01;77.74;100762.03;5049465;28;20053;-82
2022/06/19 00:48:01;;;;;;;13.60;2.97;;;;;;;14.91;77.08;100757.22;5048982;28;20021;-83
2022/06/19 00:50:30;;;;;;;15.13;3.50;;;;;;;14.84;77.19;100757.38;5029229;28;20115;-83
2022/06/19 00:52:56;;;;;;;13.83;2.80;;;;;;;14.83;75.39;100760.34;5046810;28;20028;-82
2022/06/19 00:55:38;;;;;;;13.87;3.33;;;;;;;14.72;75.26;100763.94;5051557;28;20032;-81
2022/06/19 00:58:10;;;;;;;14.90;3.07;;;;;;;14.72;75.70;100766.66;5049526;28;20048;-80
2022/06/19 01:00:36;;;;;;;14.17;3.17;;;;;;;14.67;75.62;100753.75;5049733;28;20025;-81
2022/06/19 01:03:20;;;;;;;13.63;3.17;;;;;;;14.56;75.94;100754.56;5050347;28;20489;-81
2022/06/19 01:05:48;;;;;;;14.27;3.55;;;;;;;14.60;75.40;100758.47;5045958;28;20694;-81
2022/06/19 01:08:14;;;;;;;15.63;3.10;;;;;;;14.57;75.17;100754.34;5048797;28;20064;-82
2022/06/19 01:10:44;;;;;;;13.03;3.10;;;;;;;14.50;75.23;100750.91;5047976;28;20735;-81
2022/06/19 01:13:11;;;;;;;14.03;3.17;;;;;;;14.43;75.72;100747.47;5047157;28;20020;-81
2022/06/19 01:15:38;;;;;;;14.73;3.70;;;;;;;14.38;75.33;100750.94;5049125;28;20411;-82
2022/06/19 01:18:06;;;;;;;14.97;3.47;;;;;;;14.37;74.69;100759.34;5047778;28;20484;-82
2022/06/19 01:20:33;;;;;;;12.00;3.00;;;;;;;14.38;73.33;100796.44;5046483;28;20033;-83
2022/06/19 01:23:11;;;;;;;16.13;3.30;;;;;;;14.42;74.21;100891.13;5048275;28;20032;-81
2022/06/19 01:25:39;;;;;;;15.03;2.90;;;;;;;14.50;72.94;100937.13;5049581;28;20017;-82
2022/06/19 01:30:58;;;;;;;12.53;2.53;;;;;;;14.49;71.20;100806.50;5048240;28;20054;-82
2022/06/19 01:33:30;;;;;;;12.80;3.10;;;;;;;14.40;70.49;100846.94;5047730;28;20049;-81
2022/06/19 01:35:56;;;;;;;11.37;2.73;;;;;;;14.35;70.07;100880.34;5047128;28;20036;-80
2022/06/19 01:38:23;;;;;;;13.90;2.87;;;;;;;14.31;69.04;100859.25;5050292;28;20024;-81
2022/06/19 01:40:53;;;;;;;17.80;3.03;;;;;;;14.16;70.31;100805.22;5031089;28;20072;-81
2022/06/19 01:43:22;;;;;;;11.27;2.47;;;;;;;14.07;70.03;100818.34;5049312;28;20456;-80
2022/06/19 01:45:54;;;;;;;11.37;2.90;;;;;;;14.04;69.96;100861.59;5045928;28;20029;-82
2022/06/19 01:48:22;;;;;;;14.17;2.90;;;;;;;13.98;70.30;100866.06;5047210;28;20024;-82
2022/06/19 01:50:49;;;;;;;14.63;2.83;;;;;;;13.95;69.50;100859.22;5048996;28;20062;-81
2022/06/19 01:53:22;;;;;;;14.27;2.83;;;;;;;13.89;69.43;100860.13;5045398;28;20044;-82
2022/06/19 01:55:49;;;;;;;14.73;2.97;;;;;;;13.82;68.62;100857.53;5045556;28;20028;-82
2022/06/19 01:58:16;;;;;;;11.50;2.70;;;;;;;13.81;67.66;100849.59;5046452;28;20036;-82
2022/06/19 02:00:43;;;;;;;12.70;2.93;;;;;;;13.78;67.89;100853.59;5046715;28;20033;-82
2022/06/19 02:03:20;;;;;;;14.07;3.43;;;;;;;13.74;67.75;100859.75;5046469;28;20068;-84
2022/06/19 02:05:46;;;;;;;16.57;3.03;;;;;;;13.78;66.94;100864.50;5046346;28;20505;-80
2022/06/19 02:08:14;;;;;;;14.50;2.60;;;;;;;13.75;66.44;100858.66;5046395;28;20040;-81
2022/06/19 02:10:41;;;;;;;15.03;3.33;;;;;;;13.73;65.18;100860.81;5047824;28;20554;-80
2022/06/19 02:13:09;;;;;;;11.50;2.97;;;;;;;13.82;63.83;100868.41;5051816;28;20064;-82
2022/06/19 02:15:35;;;;;;;10.93;2.43;;;;;;;13.84;62.67;100869.03;5048730;28;20043;-81
2022/06/19 02:18:02;;;;;;;11.57;2.60;;;;;;;13.87;62.84;100886.78;5047596;28;20036;-81
2022/06/19 02:20:28;;;;;;;13.97;2.70;;;;;;;13.83;63.29;100871.94;5047594;28;20027;-80
2022/06/19 02:22:54;;;;;;;12.10;2.60;;;;;;;13.80;62.74;100850.63;5050389;28;20111;-80
2022/06/19 02:25:19;;;;;;;12.70;2.50;;;;;;;13.88;62.80;100868.56;5048483;28;20021;-80
2022/06/19 02:27:45;;;;;;;10.77;2.60;;;;;;;13.87;62.38;100875.91;5030976;28;20426;-80
2022/06/19 02:30:13;;;;;;;9.43;2.47;;;;;;;13.88;62.34;100855.75;5046261;28;20385;-81
2022/06/19 02:32:44;;;;;;;13.63;2.63;;;;;;;13.88;62.35;100852.22;5030835;28;20103;-81
2022/06/19 02:35:35;;;;;;;13.97;2.77;;;;;;;13.89;61.35;100876.47;5045036;28;20037;-82
2022/06/19 02:38:06;;;;;;;13.27;2.50;;;;;;;13.97;60.38;100881.59;5045808;28;20025;-82
2022/06/19 02:40:55;;;;;;;12.00;2.70;;;;;;;13.91;59.78;100879.81;5050042;28;20059;-81
2022/06/19 02:43:30;;;;;;;12.60;2.10;;;;;;;14.01;59.80;100885.50;5045374;28;20037;-81
2022/06/19 02:45:56;;;;;;;9.10;2.27;;;;;;;14.02;59.03;100872.75;5051531;28;20103;-81
2022/06/19 02:48:28;;;;;;;10.07;2.47;;;;;;;14.04;59.00;100883.41;5042997;28;20123;-82
2022/06/19 02:50:55;;;;;;;10.13;2.40;;;;;;;14.00;59.21;100878.38;5051624;28;20025;-81
2022/06/19 02:53:21;;;;;;;10.87;2.30;;;;;;;13.96;60.25;100860.84;5031732;28;20036;-81
2022/06/19 02:55:47;;;;;;;12.00;2.53;;;;;;;13.86;59.89;100838.81;5051294;28;20064;-81
2022/06/19 02:58:13;;;;;;;8.13;2.20;;;;;;;13.99;60.30;100868.59;5045689;28;20453;-80
2022/06/19 03:00:39;;;;;;;10.80;2.30;;;;;;;13.95;60.64;100861.94;5028306;28;20414;-81
2022/06/19 03:03:12;;;;;;;10.80;2.53;;;;;;;13.89;61.29;100875.66;5044357;28;20029;-81
2022/06/19 03:05:37;;;;;;;8.90;2.23;;;;;;;13.93;61.73;100951.22;5048415;28;20079;-80
2022/06/19 03:08:03;;;;;;;12.30;2.60;;;;;;;13.99;61.81;101002.06;5043354;28;20041;-83
2022/06/19 03:10:30;;;;;;;13.40;2.63;;;;;;;14.02;63.00;100987.16;5044948;28;20067;-82
2022/06/19 03:12:58;;;;;;;11.53;2.40;;;;;;;13.97;62.98;100951.59;5050014;28;20085;-81
2022/06/19 03:15:24;;;;;;;11.70;2.03;;;;;;;13.87;63.04;100926.81;5045362;28;20043;-81
2022/06/19 03:17:49;;;;;;;14.03;2.83;;;;;;;13.75;63.07;100913.97;5053649;28;20028;-81
2022/06/19 03:20:18;;;;;;;12.40;2.47;;;;;;;13.67;63.47;100906.97;5049561;28;20457;-85
2022/06/19 03:22:44;;;;;;;8.47;2.47;;;;;;;13.71;61.56;100906.50;5030535;28;20055;-81
2022/06/19 03:25:10;;;;;;;9.30;2.00;;;;;;;13.68;62.00;100896.88;5051293;28;20064;-81
2022/06/19 03:27:35;;;;;;;10.17;2.10;;;;;;;13.64;61.61;100895.69;5049361;28;20120;-82
2022/06/19 03:30:01;;;;;;;11.30;2.53;;;;;;;13.62;61.65;100865.16;5031865;28;20464;-80
2022/06/19 03:32:26;;;;;;;10.17;1.80;;;;;;;13.50;61.82;100857.78;5050141;28;20032;-82
2022/06/19 03:34:53;;;;;;;10.73;2.10;;;;;;;13.54;61.27;100874.47;5049218;28;20040;-80
2022/06/19 03:37:18;;;;;;;10.07;2.00;;;;;;;13.59;60.77;100915.44;5048507;28;20037;-83
2022/06/19 03:39:43;;;;;;;10.43;1.80;;;;;;;13.60;60.51;100898.06;5049662;28;20024;-82
2022/06/19 03:42:11;;;;;;;11.17;2.03;;;;;;;13.55;61.01;100867.97;5050715;28;20106;-82
2022/06/19 03:44:36;;;;;;;9.47;1.83;;;;;;;13.50;61.10;100833.28;5049962;28;20745;-81
2022/06/19 03:47:02;;;;;;;7.50;1.73;;;;;;;13.50;60.44;100807.94;5034130;28;20127;-83
2022/06/19 03:49:28;;;;;;;7.40;1.90;;;;;;;13.46;60.91;100823.94;5049068;28;20037;-81
2022/06/19 03:51:53;;;;;;;8.83;1.87;;;;;;;13.44;61.39;100822.50;5050346;28;20036;-82
2022/06/19 03:54:18;;;;;;;8.23;1.67;;;;;;;13.44;61.15;100808.91;5047962;28;20025;-81
2022/06/19 03:56:44;;;;;;;8.80;1.60;;;;;;;13.41;61.64;100871.94;5051002;28;21125;-81
2022/06/19 03:59:12;;;;;;;7.30;1.80;;;;;;;13.45;61.03;100922.13;5049719;28;20904;-82
2022/06/19 04:01:42;;;;;;;8.63;2.17;;;;;;;13.46;60.56;100951.84;5050502;28;20021;-80
2022/06/19 04:04:09;;;;;;;10.17;1.90;;;;;;;13.49;60.60;100905.13;5047726;28;20040;-80
2022/06/19 04:06:38;;;;;;;7.13;1.83;;;;;;;13.28;60.94;100865.56;5055345;28;20103;-81
2022/06/19 04:09:05;;;;;;;10.07;1.80;;;;;;;13.37;62.70;100890.63;5036785;28;20077;-81
2022/06/19 04:11:31;;;;;;;8.10;1.90;;;;;;;13.39;61.40;100847.66;5050103;28;20472;-81
2022/06/19 04:13:57;;;;;;;11.53;2.30;;;;;;;13.34;62.11;100834.75;5053686;28;20029;-81
2022/06/19 04:16:26;;;;;;;9.77;2.00;;;;;;;13.29;62.41;100818.25;5053238;28;20487;-81
2022/06/19 04:18:54;;;;;;;12.03;1.90;;;;;;;13.25;63.48;100800.75;5050525;28;20031;-81
2022/06/19 04:21:22;;;;;;;7.53;1.90;;;;;;;13.26;64.01;100788.81;5046966;28;20028;-80
2022/06/19 04:23:50;;;;;;;8.03;1.83;;;;;;;13.27;63.20;100752.38;5051644;28;20028;-81
2022/06/19 04:26:17;;;;;;;10.50;1.90;;;;;;;13.31;63.17;100729.09;5049080;28;20082;-79
2022/06/19 04:28:43;;;;;;;8.87;1.90;;;;;;;13.33;63.54;100710.63;5047634;28;20505;-81
2022/06/19 04:31:09;;;;;;;6.67;1.93;;;;;;;13.36;63.65;100703.09;5032752;28;20025;-81
2022/06/19 04:33:38;;;;;;;15.63;2.07;;;;;;;13.40;64.65;100694.22;5050566;28;20484;-80
2022/06/19 04:36:09;;;;;;;12.93;2.13;;;;;;;13.45;65.11;100682.63;5047714;28;20037;-84
2022/06/19 04:38:36;;;;;;;8.20;2.00;;;;;;;13.52;63.69;100683.34;5045016;28;20449;-83
2022/06/19 04:41:02;;;;;;;9.97;2.00;;;;;;;13.56;64.20;100698.16;5045199;28;20044;-80
2022/06/19 04:43:27;;;;;;;10.07;2.00;;;;;;;13.61;65.18;100694.72;5046162;28;20044;-81
2022/06/19 04:46:01;;;;;;;11.57;2.03;;;;;;;13.67;64.79;100688.34;5050677;28;20028;-80
2022/06/19 04:48:27;;;;;;;7.93;1.77;;;;;;;13.75;63.87;100685.25;5046925;28;20032;-81
2022/06/19 04:50:53;;;;;;;12.93;1.83;;;;;;;13.84;64.30;100683.00;5036737;28;20036;-80
2022/06/19 04:53:19;;;;;;;8.00;1.93;;;;;;;13.88;65.08;100683.34;5050886;28;20179;-81
2022/06/19 04:55:44;;;;;;;9.57;1.77;;;;;;;13.90;64.78;100664.88;5048046;28;20967;-81
2022/06/19 04:58:09;;;;;;;8.37;2.00;;;;;;;13.88;63.28;100629.69;5044554;28;20048;-80
2022/06/19 05:00:35;;;;;;;10.70;2.03;;;;;;;14.04;62.62;100605.53;5049823;28;20115;-81
2022/06/19 05:03:00;;;;;;;12.07;1.70;;;;;;;14.09;63.02;100619.22;5048537;28;20177;-80
2022/06/19 05:05:25;;;;;;;10.83;2.00;;;;;;;14.13;61.30;100642.19;5049514;28;20387;-81
2022/06/19 05:07:51;;;;;;;10.70;2.30;;;;;;;14.12;62.88;100660.47;5046537;28;20135;-80
2022/06/19 05:10:17;;;;;;;7.87;2.10;;;;;;;14.14;63.02;100679.28;5048537;28;20478;-81
2022/06/19 05:12:42;;;;;;;8.87;2.20;;;;;;;14.17;62.15;100678.78;5049101;28;20029;-81
2022/06/19 05:15:09;;;;;;;8.87;1.83;;;;;;;14.13;61.65;100689.38;5049261;28;20067;-81
2022/06/19 05:17:35;;;;;;;10.57;1.90;;;;;;;14.16;60.68;100675.25;5017404;28;20464;-80
2022/06/19 05:20:03;;;;;;;8.60;2.07;;;;;;;14.23;61.63;100686.03;5049666;28;20064;-82
2022/06/19 05:22:28;;;;;;;6.07;1.53;;;;;;;14.35;61.74;100708.63;5050878;28;20365;-80
2022/06/19 05:24:54;;;;;;;8.27;1.83;;;;;;;14.43;62.14;100739.28;5051828;28;20020;-80
2022/06/19 05:27:19;;;;;;;7.90;2.10;;;;;;;14.39;61.52;100754.47;5046962;28;20519;-81
2022/06/19 05:29:45;;;;;;;8.20;2.10;;;;;;;14.48;62.09;100742.13;5048908;28;20087;-82
2022/06/19 05:32:10;;;;;;;10.93;1.93;;;;;;;14.56;62.29;100741.75;5030684;28;20051;-81
2022/06/19 05:34:37;;;;;;;8.33;1.90;;;;;;;14.61;60.74;100766.41;5049004;28;20115;-80
2022/06/19 05:37:04;;;;;;;11.50;2.30;;;;;;;14.55;60.83;100783.75;5045718;28;20063;-82
2022/06/19 05:39:35;;;;;;;10.20;2.10;;;;;;;14.56;63.41;100815.38;5048228;28;20064;-80
2022/06/19 05:42:03;;;;;;;9.63;1.90;;;;;;;14.59;60.97;100828.56;4999659;28;20492;-81
2022/06/19 05:44:28;;;;;;;8.70;1.80;;;;;;;14.75;61.92;100853.44;5048224;28;20017;-82
2022/06/19 05:46:54;;;;;;;7.57;1.93;;;;;;;14.91;61.60;100868.25;5032703;28;20457;-84
2022/06/19 05:49:20;;;;;;;8.07;1.90;;;;;;;15.05;62.17;100845.06;5048845;28;20029;-81
2022/06/19 05:51:45;;;;;;;11.83;2.30;;;;;;;15.18;61.12;100843.97;5049303;28;20032;-81
2022/06/19 05:54:10;;;;;;;7.83;2.00;;;;;;;15.30;62.87;100828.38;5055070;28;20036;-81
2022/06/19 05:56:36;;;;;;;10.10;2.33;;;;;;;15.22;60.17;100845.16;5069098;28;20107;-82
2022/06/19 05:59:02;;;;;;;10.13;2.10;;;;;;;15.18;61.51;100857.63;5063892;28;20035;-78
2022/06/19 06:01:28;;;;;;;11.63;2.10;;;;;;;15.14;61.02;100864.63;5048509;28;20072;-80
2022/06/19 06:03:54;;;;;;;6.63;2.00;;;;;;;15.22;62.14;100856.06;5051689;28;20033;-79
2022/06/19 06:06:27;;;;;;;10.20;1.87;;;;;;;15.08;62.44;100843.75;5049996;28;20067;-80
2022/06/19 06:08:54;;;;;;;10.77;2.30;;;;;;;15.09;61.87;100891.81;5029791;28;20029;-80
2022/06/19 06:11:23;;;;;;;10.90;2.17;;;;;;;15.25;61.96;100910.16;5053874;28;20041;-81
2022/06/19 06:13:48;;;;;;;8.93;1.90;;;;;;;15.15;61.26;100910.78;5053800;28;20028;-79
2022/06/19 06:16:19;;;;;;;11.20;2.60;;;;;;;15.12;62.02;100932.25;5036691;28;20032;-80
2022/06/19 06:18:45;;;;;;;8.67;1.70;;;;;;;15.24;61.39;100930.34;5039268;28;20020;-80
2022/06/19 06:21:13;;;;;;;10.90;2.20;;;;;;;15.32;61.37;100931.88;5053270;28;20039;-80
2022/06/19 06:23:39;;;;;;;11.57;2.13;;;;;;;15.54;63.83;100921.09;5037914;28;20021;-80
2022/06/19 06:26:10;;;;;;;10.23;2.23;;;;;;;15.57;62.31;100934.28;5052372;28;20342;-81
2022/06/19 06:28:38;;;;;;;9.30;2.20;;;;;;;15.61;62.16;100976.44;5043597;28;20078;-80
2022/06/19 06:31:03;;;;;;;7.73;1.90;;;;;;;15.56;61.34;100986.41;5047818;28;20039;-82
2022/06/19 06:33:29;;;;;;;12.17;2.60;;;;;;;15.52;61.31;101002.47;5050250;28;20037;-81
2022/06/19 06:35:55;;;;;;;8.83;1.80;;;;;;;15.43;60.93;101029.28;5048185;28;20032;-80
2022/06/19 06:38:22;;;;;;;11.90;2.20;;;;;;;15.48;61.02;101044.97;5047227;28;20032;-80
2022/06/19 06:40:48;;;;;;;12.23;2.30;;;;;;;15.46;62.66;101036.16;5048702;28;20033;-80
2022/06/19 06:43:13;;;;;;;11.50;2.13;;;;;;;15.32;60.72;101052.81;5050050;28;20392;-84
2022/06/19 06:45:38;;;;;;;10.20;1.90;;;;;;;15.36;60.82;101097.66;5047133;28;20037;-81
2022/06/19 06:48:04;;;;;;;7.17;1.77;;;;;;;15.38;60.52;101140.28;5050246;28;20068;-80
2022/06/19 06:50:29;;;;;;;10.30;1.80;;;;;;;15.34;59.32;101140.78;5046291;28;20036;-80
2022/06/19 06:52:55;;;;;;;6.17;1.90;;;;;;;15.28;62.07;101119.84;5049437;28;20065;-80
2022/06/19 06:55:20;;;;;;;9.13;2.10;;;;;;;15.18;62.17;101157.84;5052555;28;20549;-80
2022/06/19 06:57:46;;;;;;;8.87;2.20;;;;;;;15.11;64.30;101143.44;5031655;28;20037;-80
2022/06/19 07:00:16;;;;;;;9.53;2.17;;;;;;;14.93;66.46;101114.38;5016482;28;20032;-80
2022/06/19 07:02:42;;;;;;;9.03;2.13;;;;;;;15.02;62.88;101141.06;5053124;28;20033;-84
2022/06/19 07:05:08;;;;;;;8.53;2.00;;;;;;;14.96;65.98;101117.47;5050566;28;20371;-80
2022/06/19 07:07:33;;;;;;;7.67;1.77;;;;;;;14.93;66.69;101120.66;5031447;28;20048;-81
2022/06/19 07:09:58;;;;;;;7.37;1.80;;;;;;;14.94;65.85;101114.13;5048973;28;20056;-81
2022/06/19 07:12:24;;;;;;;10.00;1.73;;;;;;;14.77;64.05;101102.22;5048131;28;20163;-80
2022/06/19 07:14:52;;;;;;;8.40;1.80;;;;;;;14.72;64.34;101123.94;5035074;28;20064;-80
2022/06/19 07:17:18;;;;;;;10.70;1.93;;;;;;;14.61;65.72;101134.53;5050443;28;20036;-82
2022/06/19 07:19:43;;;;;;;7.83;2.03;;;;;;;14.52;67.53;101136.75;5052916;28;20389;-80
2022/06/19 07:22:12;;;;;;;12.67;1.93;;;;;;;14.44;68.32;101139.81;5054258;28;20031;-80
2022/06/19 07:24:38;;;;;;;8.77;1.80;;;;;;;14.36;68.57;101153.75;5051565;28;20037;-80
2022/06/19 07:27:04;;;;;;;11.43;2.13;;;;;;;14.30;70.01;101154.66;5034400;28;20408;-84
2022/06/19 07:29:29;;;;;;;10.00;2.33;;;;;;;14.27;69.57;101193.28;5031751;28;20040;-81
2022/06/19 07:31:54;;;;;;;11.07;2.47;;;;;;;14.22;69.16;101180.31;5048412;28;20040;-80
2022/06/19 07:34:20;;;;;;;8.90;1.90;;;;;;;14.11;72.31;101164.75;5052500;28;20044;-81
2022/06/19 07:36:45;;;;;;;12.60;2.57;;;;;;;13.98;74.12;101139.31;5052536;28;20029;-80
2022/06/19 07:39:10;;;;;;;11.03;2.43;;;;;;;13.95;79.68;101112.56;5048505;28;20021;-83
2022/06/19 07:41:36;;;;;;;19.27;2.60;;;;;;;13.93;80.58;101078.41;5054194;28;20040;-80
2022/06/19 07:44:01;;;;;;;16.00;2.77;;;;;;;13.67;81.48;101025.94;5050373;28;20062;-80
2022/06/19 07:46:27;;;;;;;12.83;2.67;;;;;;;13.78;82.84;101021.63;5052441;28;20054;-80
2022/06/19 07:51:36;;;;;;;9.70;2.30;;;;;;;13.67;83.89;101012.31;5054419;28;20055;-79
2022/06/19 07:54:02;;;;;;;15.43;2.83;;;;;;;13.63;84.50;101009.22;5046686;28;20044;-82
2022/06/19 07:56:28;;;;;;;12.97;3.17;;;;;;;13.59;86.21;100979.97;5042324;28;20026;-81
2022/06/19 07:58:53;;;;;;;12.20;2.50;;;;;;;13.68;86.91;100945.91;5028017;28;20044;-83
2022/06/19 08:01:19;;;;;;;11.83;2.77;;;;;;;13.57;87.52;100954.84;5042457;28;20033;-81
2022/06/19 08:03:44;;;;;;;14.27;2.50;;;;;;;13.34;85.99;100995.28;5040750;28;20221;-81
2022/06/19 08:06:13;;;;;;;13.70;2.80;;;;;;;13.57;87.71;101094.53;5042833;28;20040;-80
2022/06/19 08:08:38;;;;;;;13.40;3.00;;;;;;;13.45;86.66;101127.09;5041539;28;20557;-82
2022/06/19 08:11:04;;;;;;;13.10;2.90;;;;;;;13.62;89.74;101112.91;5042981;28;20211;-83
2022/06/19 08:13:31;;;;;;;13.90;3.10;;;;;;;13.71;91.10;101099.81;5042135;28;20040;-80
2022/06/19 08:16:00;;;;;;;14.43;2.87;;;;;;;13.58;90.11;101058.06;5042970;28;20036;-83
2022/06/19 08:18:26;;;;;;;14.87;3.10;;;;;;;13.74;90.33;101031.31;5040353;28;20036;-83
2022/06/19 08:20:53;;;;;;;14.13;3.50;;;;;;;13.60;90.81;101036.06;5041840;28;20032;-81
2022/06/19 08:23:19;;;;;;;15.57;3.27;;;;;;;13.46;91.93;101040.81;5026348;28;20083;-81
2022/06/19 08:25:46;;;;;;;14.80;3.30;;;;;;;13.39;92.30;101053.69;5042013;28;20040;-83
2022/06/19 08:28:12;;;;;;;15.87;3.30;;;;;;;13.41;90.60;101108.72;5042409;28;20456;-80
2022/06/19 08:30:41;;;;;;;16.63;3.20;;;;;;;13.42;92.29;101110.38;5041934;28;20033;-81
2022/06/19 08:33:07;;;;;;;18.63;3.87;;;;;;;13.61;93.45;101076.69;5041105;28;20037;-80
2022/06/19 08:35:38;;;;;;;15.53;3.40;;;;;;;13.67;94.44;101021.31;5042612;28;20037;-82
2022/06/19 08:38:09;;;;;;;17.40;4.20;;;;;;;13.79;96.31;101029.56;5042160;28;20028;-81
2022/06/19 08:40:45;;;;;;;20.07;4.20;;;;;;;13.88;96.69;101043.69;5041359;28;20060;-81
2022/06/19 08:44:01;;;;;;;14.80;3.87;;;;;;;14.06;97.52;101031.94;5042542;28;20024;-81
2022/06/19 08:47:14;;;;;;;15.53;4.00;;;;;;;14.27;96.57;101011.50;5011646;28;20106;-86
2022/06/19 08:49:57;;;;;;;13.97;3.70;;;;;;;14.26;95.12;100987.22;5002034;28;20103;-82
2022/06/19 08:52:43;;;;;;;15.27;3.97;;;;;;;14.24;94.44;100978.44;5041054;28;20021;-83
2022/06/19 08:55:25;;;;;;;15.33;3.60;;;;;;;14.02;93.95;100928.03;5041735;28;20431;-81
2022/06/19 08:58:09;;;;;;;14.53;3.63;;;;;;;14.04;93.15;100954.22;5041418;28;20029;-84
2022/06/19 09:00:59;;;;;;;13.88;3.42;;;;;;;13.99;93.28;100957.63;5041144;28;20053;-83
2022/06/19 09:06:23;;;;;;;16.43;3.63;;;;;;;13.81;93.48;100958.53;5041709;28;20048;-84
2022/06/19 09:09:07;;;;;;;15.97;3.83;;;;;;;14.01;94.89;100960.97;5041407;28;21383;-81
2022/06/19 09:11:56;;;;;;;17.13;4.20;;;;;;;14.22;96.55;100962.31;5041171;28;20971;-81
2022/06/19 09:14:25;;;;;;;15.83;3.57;;;;;;;14.31;92.62;100974.53;5040797;28;20388;-82
2022/06/19 09:17:09;;;;;;;14.43;3.50;;;;;;;14.52;92.48;100988.69;5040222;28;20489;-84
2022/06/19 09:19:39;;;;;;;14.60;3.20;;;;;;;14.87;91.99;100973.47;5040927;28;20037;-83
2022/06/19 09:22:23;;;;;;;15.30;3.53;;;;;;;15.12;90.06;100998.59;5025139;28;20420;-82
2022/06/19 09:25:23;;;;;;;13.13;3.08;;;;;;;15.48;87.23;101050.44;5041147;28;20095;-82
2022/06/19 09:28:10;;;;;;;12.17;3.33;;;;;;;15.65;84.38;101077.81;5040963;28;20060;-85
2022/06/19 09:30:47;;;;;;;13.13;3.07;;;;;;;15.84;83.28;101079.38;5022081;28;20052;-85
2022/06/19 09:33:24;;;;;;;11.23;2.90;;;;;;;16.10;86.31;101074.44;5042302;28;20036;-82
2022/06/19 09:35:59;;;;;;;10.73;2.80;;;;;;;16.28;82.79;101084.31;5040614;28;20031;-84
2022/06/19 09:38:38;;;;;;;10.13;2.57;;;;;;;16.46;80.90;101093.41;5026217;28;20056;-86
2022/06/19 09:41:11;;;;;;;11.03;2.50;;;;;;;16.50;76.05;101087.19;5040383;28;20037;-85
2022/06/19 09:43:44;;;;;;;10.23;2.47;;;;;;;16.68;78.57;101071.63;5041605;28;20052;-84
2022/06/19 09:46:27;;;;;;;7.57;2.40;;;;;;;16.87;78.65;101056.63;5040698;28;20068;-86
2022/06/19 09:48:59;;;;;;;10.47;2.30;;;;;;;17.05;76.74;101052.00;5039444;28;20037;-87
2022/06/19 09:51:33;;;;;;;11.53;2.80;;;;;;;17.30;76.63;101039.78;5039881;28;20059;-86
2022/06/19 09:54:04;;;;;;;10.05;2.58;;;;;;;17.46;73.38;101030.72;5039556;28;20033;-85
2022/06/19 09:56:46;;;;;;;10.27;2.43;;;;;;;17.82;73.88;101022.94;5039939;28;20095;-84
2022/06/19 09:59:29;;;;;;;9.17;2.30;;;;;;;18.27;70.63;101010.00;5040985;28;20602;-81
2022/06/19 10:02:01;;;;;;;12.77;2.47;;;;;;;18.52;70.12;101008.56;5041182;28;20111;-83
2022/06/19 10:04:43;;;;;;;9.03;2.33;;;;;;;18.72;67.10;101013.41;5038407;28;20036;-84
2022/06/19 10:07:18;;;;;;;9.73;2.28;;;;;;;18.84;67.06;100988.53;5040623;28;20033;-83
2022/06/19 10:09:51;;;;;;;10.18;2.35;;;;;;;19.10;65.98;100986.78;5040995;28;20153;-85
2022/06/19 10:12:43;;;;;;;7.88;2.17;;;;;;;19.33;66.47;100985.53;5040550;28;20036;-82
2022/06/19 10:15:15;;;;;;;6.43;2.10;;;;;;;19.49;63.89;100980.13;5040209;28;20066;-85
2022/06/19 10:17:52;;;;;;;8.75;2.28;;;;;;;19.53;64.86;100973.81;5029445;28;20028;-82
2022/06/19 10:20:30;;;;;;;7.18;2.28;;;;;;;19.65;62.73;100964.50;5046710;28;20033;-84
2022/06/19 10:23:21;;;;;;;8.23;2.42;;;;;;;19.38;64.97;100966.34;5048095;28;20152;-85
2022/06/19 10:25:55;;;;;;;9.30;2.92;;;;;;;19.00;63.24;100954.63;5048373;28;20025;-86
2022/06/19 10:28:47;;;;;;;10.95;2.42;;;;;;;19.04;65.09;100944.75;5044842;28;20242;-83
2022/06/19 10:31:40;;;;;;;6.95;2.15;;;;;;;19.51;65.63;100932.03;5053427;28;20025;-82
2022/06/19 10:34:24;;;;;;;6.43;1.98;;;;;;;19.65;62.09;100943.34;5041108;28;20029;-85
2022/06/19 10:36:52;;;;;;;8.38;2.00;;;;;;;19.30;57.91;100949.56;5039892;28;20439;-84
2022/06/19 10:39:27;;;;;;;7.05;1.88;;;;;;;19.11;59.15;100932.69;5040663;28;20114;-85
2022/06/19 10:42:01;;;;;;;6.90;1.90;;;;;;;18.93;57.78;100964.16;5040235;28;20489;-84
2022/06/19 10:44:53;;;;;;;6.43;1.60;;;;;;;18.68;59.72;100969.19;5040469;28;20059;-87
2022/06/19 10:47:30;;;;;;;6.55;1.77;;;;;;;18.41;60.79;100968.44;5040067;28;20074;-86
2022/06/19 10:50:02;;;;;;;6.30;2.00;;;;;;;18.35;63.00;100953.84;5040581;28;20047;-84
2022/06/19 10:52:45;;;;;;;8.98;2.00;;;;;;;18.62;62.12;100942.81;5039828;28;20128;-85
2022/06/19 10:55:22;;;;;;;4.30;1.70;;;;;;;18.99;61.88;100952.13;5040439;28;20036;-83
2022/06/19 10:58:01;;;;;;;7.85;2.15;;;;;;;18.68;64.75;100968.38;5039731;28;21406;-83
2022/06/19 11:00:26;;;;;;;8.48;2.05;;;;;;;18.96;62.91;100971.88;5040864;28;20471;-89
2022/06/19 11:06:05;;;;;;;9.52;2.00;;;;;;;18.93;62.51;100991.63;5040014;28;20131;-88
2022/06/19 11:08:38;;;;;;;9.98;2.10;;;;;;;18.70;60.78;101013.66;5040360;28;20401;-85
2022/06/19 11:11:06;;;;;;;6.95;2.10;;;;;;;18.89;60.96;101025.09;5039220;28;20175;-83
2022/06/19 11:14:01;;;;;;;9.13;2.28;;;;;;;19.12;60.91;101009.34;5023756;28;20473;-86
2022/06/19 11:16:28;;;;;;;5.47;2.00;;;;;;;19.04;61.82;100999.66;5039630;28;20044;-87
2022/06/19 11:18:54;;;;;;;5.18;2.40;;;;;;;19.13;60.71;100990.94;5039492;28;20029;-85
2022/06/19 11:21:24;;;;;;;6.68;2.17;;;;;;;19.00;58.77;101004.03;5038280;28;20393;-84
2022/06/19 11:23:49;;;;;;;6.72;2.00;;;;;;;19.11;60.73;101004.94;5040513;28;20112;-89
2022/06/19 11:26:17;;;;;;;6.03;2.08;;;;;;;19.25;60.37;101026.44;5040523;28;20101;-86
2022/06/19 11:29:00;;;;;;;8.15;2.33;;;;;;;19.10;58.35;101032.66;5040229;28;20416;-87
2022/06/19 11:31:30;;;;;;;7.50;1.98;;;;;;;19.26;59.55;101047.28;5040102;28;20047;-83
2022/06/19 11:33:59;;;;;;;7.50;2.20;;;;;;;19.51;60.00;101049.38;5040018;28;20120;-86
2022/06/19 11:36:37;;;;;;;6.95;2.10;;;;;;;19.57;57.53;101046.38;5041134;28;20086;-86
2022/06/19 11:39:31;;;;;;;6.47;1.95;;;;;;;19.56;55.54;101043.91;5043650;28;20032;-84
2022/06/19 11:42:20;;;;;;;;;;;;;;;19.77;57.94;101047.56;5044644;28;20384;-84
2022/06/19 11:44:54;;;;;;;6.50;2.00;;;;;;;19.79;60.98;101058.31;5022806;28;19954;-84